Time;durP1;ratioP1;P1;durP2;ratioP2;P2;SDS_P1;SDS_P2;PMS_P1;PMS_P2;Temp;Humidity;BMP_temperature;BMP_pressure;BME280_temperature;BME280_humidity;BME280_pressure;Samples;Min_cycle;Max_cycle;Signal;HPM_P1;HPM_P2
2022/09/29 00:01:57;;;;;;;21.60;7.17;;;;;;;;;;6302212;22;20208;-86
2022/09/29 00:04:25;;;;;;;23.03;8.27;;;;;;;;;;6303068;22;20260;-86
2022/09/29 00:06:52;;;;;;;24.97;7.73;;;;;;;;;;6301201;22;20536;-86
2022/09/29 00:09:20;;;;;;;35.80;7.50;;;;;;;;;;6303317;22;20180;-87
2022/09/29 00:11:47;;;;;;;18.50;7.50;;;;;;;;;;6300101;22;20173;-86
2022/09/29 00:14:14;;;;;;;24.10;7.43;;;;;;;;;;6303587;22;20173;-86
2022/09/29 00:16:42;;;;;;;16.67;7.63;;;;;;;;;;6300535;22;20243;-86
2022/09/29 00:19:09;;;;;;;21.30;8.07;;;;;;;;;;6303158;22;20215;-86
2022/09/29 00:21:38;;;;;;;19.80;7.43;;;;;;;;;;6301967;22;20196;-86
2022/09/29 00:24:05;;;;;;;34.37;7.07;;;;;;;;;;6303825;22;20259;-86
2022/09/29 00:26:32;;;;;;;23.73;7.37;;;;;;;;;;6300839;22;20722;-86
2022/09/29 00:29:00;;;;;;;31.80;8.03;;;;;;;;;;6302069;22;20177;-86
2022/09/29 00:31:28;;;;;;;21.27;7.17;;;;;;;;;;6302722;22;20173;-86
2022/09/29 00:33:56;;;;;;;24.60;7.90;;;;;;;;;;6302641;22;20184;-87
2022/09/29 00:36:24;;;;;;;38.00;8.63;;;;;;;;;;6303044;22;20252;-87
2022/09/29 00:38:52;;;;;;;28.80;8.77;;;;;;;;;;6302727;22;20203;-87
2022/09/29 00:41:23;;;;;;;33.37;9.07;;;;;;;;;;6302136;22;20177;-85
2022/09/29 00:43:59;;;;;;;26.93;8.90;;;;;;;;;;6300436;22;20256;-85
2022/09/29 00:46:31;;;;;;;29.60;8.03;;;;;;;;;;6301578;22;20176;-85
2022/09/29 00:48:59;;;;;;;13.80;6.63;;;;;;;;;;6302805;22;20161;-85
2022/09/29 00:51:28;;;;;;;20.93;8.47;;;;;;;;;;6300691;22;20202;-86
2022/09/29 00:53:58;;;;;;;19.33;7.63;;;;;;;;;;6302245;22;20177;-85
2022/09/29 00:56:26;;;;;;;17.70;8.00;;;;;;;;;;6302677;22;20215;-86
2022/09/29 00:58:55;;;;;;;20.97;8.23;;;;;;;;;;6302711;22;20271;-86
2022/09/29 01:01:22;;;;;;;19.77;7.73;;;;;;;;;;6302635;22;20168;-85
2022/09/29 01:03:51;;;;;;;18.23;7.87;;;;;;;;;;6302170;22;20203;-85
2022/09/29 01:06:21;;;;;;;15.00;6.83;;;;;;;;;;6303286;22;20184;-85
2022/09/29 01:08:51;;;;;;;17.87;7.40;;;;;;;;;;6303093;22;20200;-86
2022/09/29 01:11:20;;;;;;;16.40;7.27;;;;;;;;;;6300392;22;20179;-85
2022/09/29 01:13:48;;;;;;;16.23;7.03;;;;;;;;;;6302533;22;20177;-86
2022/09/29 01:16:15;;;;;;;18.17;7.30;;;;;;;;;;6301692;22;20200;-86
2022/09/29 01:18:43;;;;;;;14.83;6.60;;;;;;;;;;6300166;22;20201;-86
2022/09/29 01:21:14;;;;;;;20.20;6.87;;;;;;;;;;6302026;22;20212;-86
2022/09/29 01:24:08;;;;;;;19.87;7.27;;;;;;;;;;6299766;22;20193;-86
2022/09/29 01:26:50;;;;;;;12.57;6.53;;;;;;;;;;6231260;22;20179;-86
2022/09/29 01:29:38;;;;;;;17.77;6.90;;;;;;;;;;6302515;22;20173;-85
2022/09/29 01:32:10;;;;;;;14.47;7.03;;;;;;;;;;6299865;22;20173;-85
2022/09/29 01:34:42;;;;;;;18.43;7.17;;;;;;;;;;6301024;22;20670;-85
2022/09/29 01:37:13;;;;;;;17.13;6.80;;;;;;;;;;6301962;22;20200;-85
2022/09/29 01:39:42;;;;;;;17.13;7.17;;;;;;;;;;6301884;22;20503;-85
2022/09/29 01:42:12;;;;;;;21.97;6.77;;;;;;;;;;6302436;22;20200;-86
2022/09/29 01:44:44;;;;;;;17.27;7.03;;;;;;;;;;6304301;22;20181;-85
2022/09/29 01:47:14;;;;;;;18.13;7.27;;;;;;;;;;6304252;22;20192;-85
2022/09/29 01:49:44;;;;;;;15.77;7.10;;;;;;;;;;6303808;22;20165;-86
2022/09/29 01:52:13;;;;;;;15.27;7.33;;;;;;;;;;6304633;22;20169;-86
2022/09/29 01:54:43;;;;;;;13.00;6.47;;;;;;;;;;6304192;22;20177;-86
2022/09/29 01:57:12;;;;;;;16.40;7.43;;;;;;;;;;6304576;22;20698;-86
2022/09/29 01:59:44;;;;;;;14.63;7.23;;;;;;;;;;6304082;22;20635;-86
2022/09/29 02:02:15;;;;;;;15.90;7.43;;;;;;;;;;6302744;22;20189;-86
2022/09/29 02:04:44;;;;;;;17.33;7.90;;;;;;;;;;6303800;22;20169;-86
2022/09/29 02:07:14;;;;;;;17.83;7.57;;;;;;;;;;6304008;22;20185;-85
2022/09/29 02:09:44;;;;;;;18.10;7.93;;;;;;;;;;6304592;22;20173;-85
2022/09/29 02:12:13;;;;;;;17.20;6.80;;;;;;;;;;6303441;22;20631;-85
2022/09/29 02:14:43;;;;;;;14.13;6.50;;;;;;;;;;6302968;22;20769;-85
2022/09/29 02:17:18;;;;;;;14.03;6.23;;;;;;;;;;6303107;22;20753;-85
2022/09/29 02:19:48;;;;;;;17.63;6.77;;;;;;;;;;6304445;22;20211;-85
2022/09/29 02:22:18;;;;;;;17.97;6.47;;;;;;;;;;6303337;22;20177;-85
2022/09/29 02:24:46;;;;;;;16.60;6.97;;;;;;;;;;6304498;22;20157;-85
2022/09/29 02:27:13;;;;;;;17.50;6.57;;;;;;;;;;6303751;22;20189;-85
2022/09/29 02:29:41;;;;;;;18.53;7.13;;;;;;;;;;6304033;22;20526;-85
2022/09/29 02:32:09;;;;;;;12.87;6.47;;;;;;;;;;6302985;22;20172;-86
2022/09/29 02:34:40;;;;;;;17.53;7.43;;;;;;;;;;6303807;22;20627;-86
2022/09/29 02:37:13;;;;;;;15.07;6.70;;;;;;;;;;6302003;22;20204;-85
2022/09/29 02:39:43;;;;;;;20.20;7.23;;;;;;;;;;6301271;22;20169;-85
2022/09/29 02:42:19;;;;;;;19.40;6.63;;;;;;;;;;6303482;22;20188;-85
2022/09/29 02:44:55;;;;;;;24.40;6.30;;;;;;;;;;6303531;22;20160;-86
2022/09/29 02:47:31;;;;;;;14.43;5.97;;;;;;;;;;6302814;22;20203;-86
2022/09/29 02:50:05;;;;;;;19.53;6.30;;;;;;;;;;6303621;22;20165;-87
2022/09/29 02:52:41;;;;;;;17.47;6.63;;;;;;;;;;6303039;22;20488;-87
2022/09/29 02:55:13;;;;;;;36.63;7.43;;;;;;;;;;6303474;22;20180;-86
2022/09/29 02:57:46;;;;;;;17.70;7.50;;;;;;;;;;6303929;22;20478;-86
2022/09/29 03:00:14;;;;;;;15.57;6.17;;;;;;;;;;6302106;22;20185;-87
2022/09/29 03:02:42;;;;;;;44.70;7.73;;;;;;;;;;6302711;22;20199;-87
2022/09/29 03:05:10;;;;;;;20.57;8.17;;;;;;;;;;6303733;22;20188;-86
2022/09/29 03:07:39;;;;;;;18.70;6.57;;;;;;;;;;6302381;22;20591;-87
2022/09/29 03:10:08;;;;;;;15.20;6.50;;;;;;;;;;6301558;22;20565;-87
2022/09/29 03:12:35;;;;;;;15.47;5.20;;;;;;;;;;6302652;22;20169;-86
2022/09/29 03:15:03;;;;;;;20.53;5.33;;;;;;;;;;6303370;22;20180;-86
2022/09/29 03:17:30;;;;;;;16.43;4.77;;;;;;;;;;6302044;22;20254;-87
2022/09/29 03:19:58;;;;;;;9.40;4.37;;;;;;;;;;6301982;22;20647;-87
2022/09/29 03:22:25;;;;;;;7.70;3.63;;;;;;;;;;6302421;22;20173;-87
2022/09/29 03:24:54;;;;;;;9.00;3.47;;;;;;;;;;6303097;22;20173;-87
2022/09/29 03:27:21;;;;;;;7.17;3.33;;;;;;;;;;6303863;22;20242;-86
2022/09/29 03:29:49;;;;;;;5.70;2.90;;;;;;;;;;6303360;22;20183;-86
2022/09/29 03:32:16;;;;;;;6.03;3.03;;;;;;;;;;6303399;22;20299;-87
2022/09/29 03:34:43;;;;;;;6.10;3.17;;;;;;;;;;6303098;22;20180;-86
2022/09/29 03:37:11;;;;;;;8.30;2.93;;;;;;;;;;6302764;22;20686;-86
2022/09/29 03:39:38;;;;;;;5.10;2.30;;;;;;;;;;6303553;22;20441;-86
2022/09/29 03:42:07;;;;;;;4.33;2.07;;;;;;;;;;6301177;22;20632;-86
2022/09/29 03:44:34;;;;;;;3.20;1.93;;;;;;;;;;6303336;22;20211;-86
2022/09/29 03:47:02;;;;;;;5.57;2.10;;;;;;;;;;6301505;22;20197;-86
2022/09/29 03:49:29;;;;;;;4.83;2.47;;;;;;;;;;6303457;22;20181;-86
2022/09/29 03:51:56;;;;;;;6.53;3.27;;;;;;;;;;6301580;22;20642;-86
2022/09/29 03:54:26;;;;;;;10.80;3.57;;;;;;;;;;6303413;22;20205;-87
2022/09/29 03:56:53;;;;;;;12.43;4.33;;;;;;;;;;6302406;22;20200;-87
2022/09/29 03:59:22;;;;;;;9.17;3.60;;;;;;;;;;6302816;22;20169;-87
2022/09/29 04:01:49;;;;;;;8.83;4.20;;;;;;;;;;6301820;22;20196;-86
2022/09/29 04:04:16;;;;;;;9.17;3.77;;;;;;;;;;6301722;22;20195;-87
2022/09/29 04:06:43;;;;;;;21.43;4.07;;;;;;;;;;6303249;22;20238;-87
2022/09/29 04:09:11;;;;;;;17.83;4.50;;;;;;;;;;6275927;22;20241;-87
2022/09/29 04:11:38;;;;;;;28.43;5.20;;;;;;;;;;6303490;22;20272;-87
2022/09/29 04:14:05;;;;;;;23.60;5.30;;;;;;;;;;6302634;22;20631;-86
2022/09/29 04:16:34;;;;;;;21.00;5.40;;;;;;;;;;6302385;22;20191;-86
2022/09/29 04:19:01;;;;;;;27.23;6.70;;;;;;;;;;6302685;22;20169;-85
2022/09/29 04:21:28;;;;;;;22.07;5.00;;;;;;;;;;6303308;22;20526;-86
2022/09/29 04:23:56;;;;;;;26.97;5.30;;;;;;;;;;6303037;22;20200;-85
2022/09/29 04:26:23;;;;;;;15.87;5.30;;;;;;;;;;6303255;22;20164;-85
2022/09/29 04:28:50;;;;;;;28.83;5.83;;;;;;;;;;6302430;22;20536;-86
2022/09/29 04:31:17;;;;;;;44.70;7.07;;;;;;;;;;6300541;22;20212;-86
2022/09/29 04:33:46;;;;;;;18.57;4.83;;;;;;;;;;6301102;22;20169;-86
2022/09/29 04:36:13;;;;;;;30.07;5.87;;;;;;;;;;6303113;22;20217;-89
2022/09/29 04:38:41;;;;;;;24.73;6.27;;;;;;;;;;6303710;22;20189;-85
2022/09/29 04:41:08;;;;;;;21.03;5.83;;;;;;;;;;6302535;22;20639;-87
2022/09/29 04:43:35;;;;;;;24.70;5.73;;;;;;;;;;6303277;22;20284;-86
2022/09/29 04:46:04;;;;;;;23.67;6.07;;;;;;;;;;6304488;22;20172;-85
2022/09/29 04:48:32;;;;;;;24.50;5.67;;;;;;;;;;6304206;22;20251;-87
2022/09/29 04:51:00;;;;;;;12.70;5.33;;;;;;;;;;6303828;22;20308;-86
2022/09/29 04:53:28;;;;;;;24.10;6.17;;;;;;;;;;6308643;22;20233;-87
2022/09/29 04:55:55;;;;;;;40.30;6.43;;;;;;;;;;6312062;22;20200;-87
2022/09/29 04:58:22;;;;;;;35.47;5.87;;;;;;;;;;6311473;22;20196;-85
2022/09/29 05:00:50;;;;;;;22.60;6.10;;;;;;;;;;6306580;22;20184;-86
2022/09/29 05:03:17;;;;;;;17.20;5.80;;;;;;;;;;6304724;22;20211;-87
2022/09/29 05:05:44;;;;;;;22.33;6.17;;;;;;;;;;6303021;22;20181;-87
2022/09/29 05:08:13;;;;;;;12.43;5.67;;;;;;;;;;6300885;22;20563;-87
2022/09/29 05:10:41;;;;;;;18.30;5.00;;;;;;;;;;6300559;22;20173;-87
2022/09/29 05:13:09;;;;;;;33.63;5.70;;;;;;;;;;6300847;22;20173;-87
2022/09/29 05:15:36;;;;;;;17.90;5.00;;;;;;;;;;6302497;22;20173;-86
2022/09/29 05:18:03;;;;;;;28.33;4.83;;;;;;;;;;6303561;22;20275;-87
2022/09/29 05:20:31;;;;;;;10.00;4.30;;;;;;;;;;6304049;22;20238;-87
2022/09/29 05:22:59;;;;;;;12.23;4.67;;;;;;;;;;6304613;22;20188;-86
2022/09/29 05:25:28;;;;;;;14.23;4.57;;;;;;;;;;6305079;22;20547;-87
2022/09/29 05:27:55;;;;;;;11.67;5.10;;;;;;;;;;6304722;22;20199;-87
2022/09/29 05:30:23;;;;;;;19.23;5.30;;;;;;;;;;6277715;22;20177;-87
2022/09/29 05:32:50;;;;;;;12.60;5.10;;;;;;;;;;6304808;22;20257;-86
2022/09/29 05:35:17;;;;;;;9.90;4.60;;;;;;;;;;6304015;22;20184;-86
2022/09/29 05:37:46;;;;;;;10.57;5.03;;;;;;;;;;6305161;22;20276;-87
2022/09/29 05:40:13;;;;;;;11.13;4.90;;;;;;;;;;6302962;22;20184;-86
2022/09/29 05:42:42;;;;;;;9.57;4.80;;;;;;;;;;6303181;22;20180;-86
2022/09/29 05:45:10;;;;;;;9.40;4.30;;;;;;;;;;6303750;22;20197;-86
2022/09/29 05:47:41;;;;;;;9.80;4.10;;;;;;;;;;6302990;22;20193;-87
2022/09/29 05:50:09;;;;;;;8.23;4.67;;;;;;;;;;6305061;22;20503;-86
2022/09/29 05:52:36;;;;;;;9.67;4.40;;;;;;;;;;6302735;22;20180;-87
2022/09/29 05:55:03;;;;;;;11.67;4.33;;;;;;;;;;6303861;22;20176;-88
2022/09/29 05:57:30;;;;;;;13.60;5.00;;;;;;;;;;6302906;22;20200;-87
2022/09/29 05:59:59;;;;;;;8.93;4.60;;;;;;;;;;6304845;22;20488;-87
2022/09/29 06:02:26;;;;;;;18.33;4.40;;;;;;;;;;6304318;22;20173;-87
2022/09/29 06:04:53;;;;;;;12.57;4.20;;;;;;;;;;6303826;22;20199;-87
2022/09/29 06:07:21;;;;;;;12.40;3.97;;;;;;;;;;6305110;22;20199;-87
2022/09/29 06:09:48;;;;;;;9.80;4.23;;;;;;;;;;6305186;22;20511;-86
2022/09/29 06:12:15;;;;;;;9.47;4.20;;;;;;;;;;6304127;22;20180;-87
2022/09/29 06:14:43;;;;;;;7.40;3.67;;;;;;;;;;6304493;22;20169;-87
2022/09/29 06:17:12;;;;;;;8.77;4.27;;;;;;;;;;6304102;22;20201;-89
2022/09/29 06:19:39;;;;;;;15.30;4.17;;;;;;;;;;6303145;22;20189;-87
2022/09/29 06:22:06;;;;;;;11.27;3.93;;;;;;;;;;6302238;22;20161;-86
2022/09/29 06:24:34;;;;;;;18.23;4.10;;;;;;;;;;6303414;22;20524;-85
2022/09/29 06:27:01;;;;;;;8.47;4.37;;;;;;;;;;6302683;22;20698;-86
2022/09/29 06:29:28;;;;;;;11.80;4.50;;;;;;;;;;6303206;22;20169;-86
2022/09/29 06:31:55;;;;;;;10.37;3.97;;;;;;;;;;6304372;22;20212;-86
2022/09/29 06:34:24;;;;;;;11.80;4.20;;;;;;;;;;6305527;22;20191;-85
2022/09/29 06:39:37;;;;;;;13.00;4.53;;;;;;;;;;6306914;22;20412;-86
2022/09/29 06:42:04;;;;;;;9.83;4.07;;;;;;;;;;6304778;22;20173;-86
2022/09/29 06:44:32;;;;;;;9.07;4.50;;;;;;;;;;6303668;22;20279;-87
2022/09/29 06:46:59;;;;;;;12.80;5.10;;;;;;;;;;6302569;22;20421;-85
2022/09/29 06:49:28;;;;;;;11.07;4.90;;;;;;;;;;6302123;22;20571;-85
2022/09/29 06:51:56;;;;;;;10.17;5.30;;;;;;;;;;6303000;22;20173;-85
2022/09/29 06:54:24;;;;;;;10.73;5.13;;;;;;;;;;6303614;22;20169;-86
2022/09/29 06:56:54;;;;;;;11.27;4.50;;;;;;;;;;6305605;22;20197;-92
2022/09/29 06:59:22;;;;;;;12.67;5.57;;;;;;;;;;6305591;22;20527;-92
2022/09/29 07:01:49;;;;;;;10.87;5.03;;;;;;;;;;6304702;22;20183;-91
2022/09/29 07:04:18;;;;;;;14.53;5.60;;;;;;;;;;6304880;22;20562;-92
2022/09/29 07:06:47;;;;;;;11.33;5.77;;;;;;;;;;6306207;22;20650;-91
2022/09/29 07:09:16;;;;;;;12.33;5.73;;;;;;;;;;6303614;22;20181;-92
2022/09/29 07:11:45;;;;;;;14.70;6.47;;;;;;;;;;6302993;22;20636;-90
2022/09/29 07:14:13;;;;;;;11.33;5.70;;;;;;;;;;6304248;22;20168;-92
2022/09/29 07:16:40;;;;;;;18.97;6.17;;;;;;;;;;6304822;22;20183;-88
2022/09/29 07:19:08;;;;;;;11.13;5.77;;;;;;;;;;6278869;22;20181;-92
2022/09/29 07:21:36;;;;;;;15.23;5.97;;;;;;;;;;6302517;22;20185;-92
2022/09/29 07:24:05;;;;;;;12.63;6.07;;;;;;;;;;6302960;22;20212;-91
2022/09/29 07:26:32;;;;;;;11.43;5.60;;;;;;;;;;6303929;22;20288;-92
2022/09/29 07:29:00;;;;;;;9.87;5.63;;;;;;;;;;6303888;22;20184;-93
2022/09/29 07:31:27;;;;;;;11.40;5.37;;;;;;;;;;6302956;22;20169;-92
2022/09/29 07:33:56;;;;;;;13.23;6.23;;;;;;;;;;6302863;22;20173;-91
2022/09/29 07:36:24;;;;;;;18.60;8.23;;;;;;;;;;6303812;22;20173;-91
2022/09/29 07:38:52;;;;;;;13.43;6.33;;;;;;;;;;6304251;22;20280;-92
2022/09/29 07:41:22;;;;;;;14.03;6.10;;;;;;;;;;6304566;22;20173;-90
2022/09/29 07:43:50;;;;;;;17.50;10.30;;;;;;;;;;6304086;22;20223;-91
2022/09/29 07:46:17;;;;;;;26.83;18.97;;;;;;;;;;6304264;22;20509;-92
2022/09/29 07:48:44;;;;;;;20.13;12.13;;;;;;;;;;6304178;22;20192;-90
2022/09/29 07:51:13;;;;;;;25.40;7.57;;;;;;;;;;6306246;22;20232;-90
2022/09/29 07:53:40;;;;;;;40.73;6.53;;;;;;;;;;6303257;22;20185;-89
2022/09/29 07:56:09;;;;;;;11.40;5.53;;;;;;;;;;6303784;22;20177;-91
2022/09/29 07:58:38;;;;;;;14.63;6.17;;;;;;;;;;6303027;22;20200;-91
2022/09/29 08:01:09;;;;;;;11.40;6.10;;;;;;;;;;6302604;22;20177;-90
2022/09/29 08:03:36;;;;;;;19.83;10.43;;;;;;;;;;6302491;22;20188;-92
2022/09/29 08:06:04;;;;;;;14.43;5.67;;;;;;;;;;6300688;22;20219;-92
2022/09/29 08:08:31;;;;;;;39.40;5.73;;;;;;;;;;6301855;22;20228;-92
2022/09/29 08:11:02;;;;;;;23.20;6.27;;;;;;;;;;6304032;22;20252;-91
2022/09/29 08:13:31;;;;;;;11.03;5.70;;;;;;;;;;6304672;22;20179;-92
2022/09/29 08:16:00;;;;;;;12.30;5.83;;;;;;;;;;6304457;22;20169;-92
2022/09/29 08:18:28;;;;;;;11.13;5.97;;;;;;;;;;6305872;22;20209;-91
2022/09/29 08:20:56;;;;;;;23.23;6.33;;;;;;;;;;6304740;22;20244;-92
2022/09/29 08:23:23;;;;;;;13.90;7.13;;;;;;;;;;6304132;22;20177;-92
2022/09/29 08:25:51;;;;;;;17.03;5.77;;;;;;;;;;6303826;22;20193;-93
2022/09/29 08:28:18;;;;;;;11.10;6.10;;;;;;;;;;6305834;22;20248;-93
2022/09/29 08:30:46;;;;;;;12.47;6.80;;;;;;;;;;6302872;22;20230;-92
2022/09/29 08:33:15;;;;;;;11.60;6.47;;;;;;;;;;6277801;22;20192;-92
2022/09/29 08:35:42;;;;;;;13.70;7.77;;;;;;;;;;6303488;22;20248;-91
2022/09/29 08:38:09;;;;;;;18.07;10.80;;;;;;;;;;6303434;22;20284;-91
2022/09/29 08:40:37;;;;;;;15.43;8.90;;;;;;;;;;6304069;22;20226;-88
2022/09/29 08:43:10;;;;;;;11.27;6.70;;;;;;;;;;6305357;22;20179;-91
2022/09/29 08:45:44;;;;;;;16.97;6.90;;;;;;;;;;6305873;22;20181;-91
2022/09/29 08:48:14;;;;;;;13.67;7.03;;;;;;;;;;6306199;22;20197;-91
2022/09/29 08:50:44;;;;;;;13.60;7.60;;;;;;;;;;6303116;22;20203;-92
2022/09/29 08:53:14;;;;;;;12.53;6.73;;;;;;;;;;6303469;22;20175;-93
2022/09/29 08:55:45;;;;;;;14.80;7.03;;;;;;;;;;6304838;22;20183;-91
2022/09/29 08:58:15;;;;;;;13.30;6.80;;;;;;;;;;6304620;22;20215;-93
2022/09/29 09:00:44;;;;;;;10.87;6.33;;;;;;;;;;6305155;22;20211;-93
2022/09/29 09:03:22;;;;;;;12.50;6.40;;;;;;;;;;6305061;22;20574;-92
2022/09/29 09:06:17;;;;;;;10.90;6.43;;;;;;;;;;6303470;22;20222;-92
2022/09/29 09:08:59;;;;;;;11.07;6.10;;;;;;;;;;6304013;22;20275;-93
2022/09/29 09:11:39;;;;;;;12.40;6.03;;;;;;;;;;6298180;22;20190;-92
2022/09/29 09:14:11;;;;;;;9.03;5.00;;;;;;;;;;6299212;22;20802;-92
2022/09/29 09:16:55;;;;;;;9.43;5.70;;;;;;;;;;6302042;22;20240;-93
2022/09/29 09:19:34;;;;;;;9.23;5.10;;;;;;;;;;6241033;22;20180;-92
2022/09/29 09:22:08;;;;;;;9.23;4.53;;;;;;;;;;6296695;22;20674;-94
2022/09/29 09:24:48;;;;;;;10.37;4.97;;;;;;;;;;6301835;22;20216;-93
2022/09/29 09:27:17;;;;;;;8.50;4.83;;;;;;;;;;6302582;22;20235;-93
2022/09/29 09:29:45;;;;;;;10.40;4.87;;;;;;;;;;6302178;22;20181;-92
2022/09/29 09:32:16;;;;;;;10.83;5.03;;;;;;;;;;6313629;22;20177;-92
2022/09/29 09:34:47;;;;;;;12.30;5.23;;;;;;;;;;6288713;22;20184;-92
2022/09/29 09:37:19;;;;;;;8.93;5.00;;;;;;;;;;6303259;22;20203;-92
2022/09/29 09:39:48;;;;;;;10.13;4.70;;;;;;;;;;6303991;22;20559;-92
2022/09/29 09:42:18;;;;;;;10.73;5.10;;;;;;;;;;6272500;22;20237;-86
2022/09/29 09:44:47;;;;;;;9.00;4.90;;;;;;;;;;6242787;22;20201;-87
2022/09/29 09:47:22;;;;;;;8.97;5.20;;;;;;;;;;6270373;22;20208;-87
2022/09/29 09:49:51;;;;;;;7.43;4.80;;;;;;;;;;6245189;22;20552;-87
2022/09/29 09:52:21;;;;;;;8.10;4.83;;;;;;;;;;6273742;22;20231;-87
2022/09/29 09:54:51;;;;;;;9.00;5.07;;;;;;;;;;6272763;22;20170;-86
2022/09/29 09:57:27;;;;;;;8.17;4.90;;;;;;;;;;6272261;22;20203;-86
2022/09/29 10:00:07;;;;;;;6.07;4.40;;;;;;;;;;6273026;22;20632;-87
2022/09/29 10:02:34;;;;;;;14.90;4.47;;;;;;;;;;6273005;22;20667;-87
2022/09/29 10:05:01;;;;;;;8.20;4.50;;;;;;;;;;6273253;22;20193;-85
2022/09/29 10:07:30;;;;;;;7.17;4.47;;;;;;;;;;6271969;22;20541;-86
2022/09/29 10:10:03;;;;;;;8.87;5.20;;;;;;;;;;6271347;22;20648;-86
2022/09/29 10:12:30;;;;;;;7.63;4.70;;;;;;;;;;6269965;22;20227;-85
2022/09/29 10:14:59;;;;;;;11.90;4.37;;;;;;;;;;6244301;22;20276;-86
2022/09/29 10:17:29;;;;;;;14.40;4.23;;;;;;;;;;6272523;22;20197;-85
2022/09/29 10:19:58;;;;;;;8.93;4.17;;;;;;;;;;6245131;22;20178;-85
2022/09/29 10:22:26;;;;;;;8.23;4.17;;;;;;;;;;6270992;22;20193;-85
2022/09/29 10:25:05;;;;;;;11.47;4.60;;;;;;;;;;6241907;22;20194;-84
2022/09/29 10:27:34;;;;;;;6.93;3.40;;;;;;;;;;6276719;22;20200;-85
2022/09/29 10:30:02;;;;;;;7.30;3.33;;;;;;;;;;6277518;22;20205;-84
2022/09/29 10:32:36;;;;;;;7.13;3.40;;;;;;;;;;6274971;22;20627;-84
2022/09/29 10:35:06;;;;;;;5.87;3.00;;;;;;;;;;6273826;22;20176;-84
2022/09/29 10:37:35;;;;;;;4.87;2.70;;;;;;;;;;6279212;22;20205;-87
2022/09/29 10:40:15;;;;;;;6.30;2.80;;;;;;;;;;6275630;22;20184;-85
2022/09/29 10:42:47;;;;;;;7.37;2.23;;;;;;;;;;6275017;22;20185;-85
2022/09/29 10:45:17;;;;;;;5.03;2.63;;;;;;;;;;6271552;22;20538;-86
2022/09/29 10:47:47;;;;;;;5.60;2.60;;;;;;;;;;6271859;22;20198;-86
2022/09/29 10:50:16;;;;;;;3.73;2.60;;;;;;;;;;6271941;22;20193;-83
2022/09/29 10:52:45;;;;;;;4.10;2.37;;;;;;;;;;6271463;22;20203;-84
2022/09/29 10:55:20;;;;;;;3.87;2.57;;;;;;;;;;6244916;22;20170;-84
2022/09/29 10:58:03;;;;;;;5.57;2.70;;;;;;;;;;6272761;22;20278;-84
2022/09/29 11:00:33;;;;;;;8.53;4.67;;;;;;;;;;6273326;22;20470;-84
2022/09/29 11:03:06;;;;;;;4.73;2.77;;;;;;;;;;6246540;22;20181;-83
2022/09/29 11:05:34;;;;;;;6.20;2.90;;;;;;;;;;6270310;22;20208;-83
2022/09/29 11:08:03;;;;;;;4.67;3.47;;;;;;;;;;6271247;22;20506;-82
2022/09/29 11:10:32;;;;;;;7.23;2.57;;;;;;;;;;6245538;22;20177;-83
2022/09/29 11:13:13;;;;;;;10.40;4.63;;;;;;;;;;6244911;22;20261;-83
2022/09/29 11:15:41;;;;;;;4.27;2.50;;;;;;;;;;6246681;22;20174;-83
2022/09/29 11:18:20;;;;;;;5.40;2.50;;;;;;;;;;6272058;22;20276;-82
2022/09/29 11:20:49;;;;;;;3.80;2.37;;;;;;;;;;6273622;22;20237;-83
2022/09/29 11:23:23;;;;;;;3.43;2.10;;;;;;;;;;6246018;22;20266;-83
2022/09/29 11:26:09;;;;;;;4.77;2.27;;;;;;;;;;6272888;22;20234;-84
2022/09/29 11:28:53;;;;;;;4.47;2.40;;;;;;;;;;6243547;22;20543;-83
2022/09/29 11:31:32;;;;;;;4.17;2.27;;;;;;;;;;6226452;22;20209;-82
2022/09/29 11:34:10;;;;;;;5.13;2.20;;;;;;;;;;6270864;22;20173;-84
2022/09/29 11:36:41;;;;;;;3.43;1.87;;;;;;;;;;6272074;22;20164;-84
2022/09/29 11:39:18;;;;;;;7.00;2.20;;;;;;;;;;6273117;22;20177;-83
2022/09/29 11:41:52;;;;;;;7.27;2.10;;;;;;;;;;6265997;22;20254;-82
2022/09/29 11:44:30;;;;;;;3.77;2.50;;;;;;;;;;6245026;22;20168;-83
2022/09/29 11:47:04;;;;;;;6.80;2.10;;;;;;;;;;6269615;22;20655;-82
2022/09/29 11:49:47;;;;;;;2.37;1.40;;;;;;;;;;6272784;22;20181;-83
2022/09/29 11:52:24;;;;;;;23.07;11.30;;;;;;;;;;6224824;22;20212;-82
2022/09/29 11:55:04;;;;;;;3.93;1.33;;;;;;;;;;6273292;22;20177;-84
2022/09/29 11:57:38;;;;;;;6.00;2.90;;;;;;;;;;6247046;22;20197;-85
2022/09/29 12:00:12;;;;;;;1.07;0.70;;;;;;;;;;6272516;22;20354;-81
2022/09/29 12:02:48;;;;;;;3.67;1.20;;;;;;;;;;6247102;22;20228;-82
2022/09/29 12:05:22;;;;;;;2.20;1.47;;;;;;;;;;6273564;22;20173;-81
2022/09/29 12:07:56;;;;;;;2.37;1.20;;;;;;;;;;6272213;22;20676;-81
2022/09/29 12:10:32;;;;;;;5.53;1.80;;;;;;;;;;6271933;22;20616;-82
2022/09/29 12:13:02;;;;;;;5.00;1.37;;;;;;;;;;6271759;22;20211;-82
2022/09/29 12:15:36;;;;;;;5.70;2.43;;;;;;;;;;6273279;22;20170;-82
2022/09/29 12:18:09;;;;;;;5.10;2.70;;;;;;;;;;6273388;22;20232;-83
2022/09/29 12:20:38;;;;;;;3.93;2.10;;;;;;;;;;6247263;22;20605;-82
2022/09/29 12:23:11;;;;;;;6.50;2.30;;;;;;;;;;6271941;22;20170;-82
2022/09/29 12:25:42;;;;;;;3.20;1.70;;;;;;;;;;6271937;22;20516;-83
2022/09/29 12:28:13;;;;;;;1.63;0.53;;;;;;;;;;6272906;22;20194;-82
2022/09/29 12:30:57;;;;;;;3.13;1.20;;;;;;;;;;6245621;22;20173;-83
2022/09/29 12:33:28;;;;;;;6.43;3.30;;;;;;;;;;6269656;22;20501;-83
2022/09/29 12:36:42;;;;;;;6.60;2.63;;;;;;;;;;6270928;22;20169;-81
2022/09/29 12:38:56;;;;;;;3.27;1.57;;;;;;;;;;6269913;22;20216;-81
2022/09/29 12:41:27;;;;;;;7.30;2.23;;;;;;;;;;6251161;22;20190;-81
2022/09/29 12:44:02;;;;;;;3.93;1.10;;;;;;;;;;6272190;22;20168;-83
2022/09/29 12:46:34;;;;;;;2.13;0.93;;;;;;;;;;6269229;22;20220;-82
2022/09/29 12:49:08;;;;;;;2.97;1.00;;;;;;;;;;6270940;22;20174;-82
2022/09/29 12:51:37;;;;;;;2.53;0.80;;;;;;;;;;6267501;22;20184;-81
2022/09/29 12:54:09;;;;;;;1.80;0.70;;;;;;;;;;6269637;22;20178;-82
2022/09/29 12:56:39;;;;;;;2.67;1.10;;;;;;;;;;6271426;22;20569;-83
2022/09/29 12:59:15;;;;;;;2.50;1.03;;;;;;;;;;6273393;22;20252;-83
2022/09/29 13:01:46;;;;;;;1.47;1.00;;;;;;;;;;6271475;22;20179;-83
2022/09/29 13:04:29;;;;;;;7.77;1.83;;;;;;;;;;6267262;22;20691;-82
2022/09/29 13:07:07;;;;;;;5.50;1.10;;;;;;;;;;6271356;22;20200;-82
2022/09/29 13:09:41;;;;;;;4.63;1.50;;;;;;;;;;6270430;22;20178;-81
2022/09/29 13:12:16;;;;;;;1.50;0.77;;;;;;;;;;6273403;22;20209;-81
2022/09/29 13:15:00;;;;;;;3.37;0.90;;;;;;;;;;6276051;22;20181;-81
2022/09/29 13:17:35;;;;;;;2.20;1.00;;;;;;;;;;6270482;22;20887;-81
2022/09/29 13:20:20;;;;;;;3.37;0.80;;;;;;;;;;6271088;22;20295;-82
2022/09/29 13:22:58;;;;;;;4.97;2.27;;;;;;;;;;6272159;22;20182;-82
2022/09/29 13:25:30;;;;;;;3.43;1.83;;;;;;;;;;6271116;22;20252;-82
2022/09/29 13:27:59;;;;;;;2.17;1.00;;;;;;;;;;6269150;22;20263;-84
2022/09/29 13:30:28;;;;;;;1.97;0.90;;;;;;;;;;6271108;22;20389;-83
2022/09/29 13:33:10;;;;;;;4.03;2.00;;;;;;;;;;6272019;22;20161;-82
2022/09/29 13:35:43;;;;;;;3.37;1.57;;;;;;;;;;6273849;22;20620;-84
2022/09/29 13:38:18;;;;;;;7.27;2.17;;;;;;;;;;6274340;22;20204;-84
2022/09/29 13:41:00;;;;;;;4.33;1.87;;;;;;;;;;6272614;22;20223;-83
2022/09/29 13:43:38;;;;;;;4.60;2.30;;;;;;;;;;6270287;22;20181;-83
2022/09/29 13:46:20;;;;;;;4.13;1.70;;;;;;;;;;6274751;22;20194;-82
2022/09/29 13:48:58;;;;;;;4.17;1.60;;;;;;;;;;6274432;22;20280;-82
2022/09/29 13:51:41;;;;;;;5.90;1.33;;;;;;;;;;6273386;22;20603;-83
2022/09/29 13:54:29;;;;;;;2.87;1.50;;;;;;;;;;6271769;22;20185;-83
2022/09/29 13:57:03;;;;;;;3.17;1.30;;;;;;;;;;6265640;22;20194;-83
2022/09/29 13:59:31;;;;;;;2.20;1.07;;;;;;;;;;6275828;22;20185;-83
2022/09/29 14:02:00;;;;;;;4.33;1.20;;;;;;;;;;6276580;22;20234;-83
2022/09/29 14:04:43;;;;;;;1.50;1.10;;;;;;;;;;6275952;22;20178;-83
2022/09/29 14:07:13;;;;;;;3.00;1.07;;;;;;;;;;6271948;22;20702;-83
2022/09/29 14:09:46;;;;;;;1.70;1.20;;;;;;;;;;6272682;22;20170;-83
2022/09/29 14:12:19;;;;;;;2.93;1.10;;;;;;;;;;6274648;22;20185;-86
2022/09/29 14:14:47;;;;;;;4.93;1.90;;;;;;;;;;6279147;22;20212;-84
2022/09/29 14:17:18;;;;;;;5.27;1.70;;;;;;;;;;6274590;22;20193;-84
2022/09/29 14:19:53;;;;;;;1.97;1.53;;;;;;;;;;6274735;22;20161;-85
2022/09/29 14:22:40;;;;;;;3.00;1.40;;;;;;;;;;6274663;22;20597;-85
2022/09/29 14:25:29;;;;;;;3.13;1.80;;;;;;;;;;6275061;22;20173;-85
2022/09/29 14:28:07;;;;;;;2.80;1.30;;;;;;;;;;6273803;22;20734;-86
2022/09/29 14:30:42;;;;;;;5.17;1.47;;;;;;;;;;6273696;22;20205;-85
2022/09/29 14:33:13;;;;;;;3.90;1.13;;;;;;;;;;6275599;22;20180;-84
2022/09/29 14:35:43;;;;;;;3.70;1.10;;;;;;;;;;6277717;22;20717;-84
2022/09/29 14:38:19;;;;;;;4.57;1.00;;;;;;;;;;6277093;22;20352;-82
2022/09/29 14:41:00;;;;;;;5.67;1.30;;;;;;;;;;6276247;22;20620;-85
2022/09/29 14:43:43;;;;;;;2.00;1.13;;;;;;;;;;6278320;22;20530;-83
2022/09/29 14:52:19;;;;;;;2.10;1.20;;;;;;;;;;6222666;22;20166;-84
2022/09/29 14:54:54;;;;;;;3.43;1.37;;;;;;;;;;6271367;22;20170;-84
2022/09/29 14:57:31;;;;;;;3.77;1.53;;;;;;;;;;6248478;22;20697;-83
2022/09/29 15:00:03;;;;;;;3.63;2.10;;;;;;;;;;6245444;22;20173;-85
2022/09/29 15:02:31;;;;;;;4.77;1.70;;;;;;;;;;6273907;22;20208;-83
2022/09/29 15:05:02;;;;;;;5.10;1.50;;;;;;;;;;6272569;22;20186;-84
2022/09/29 15:07:29;;;;;;;4.77;1.57;;;;;;;;;;6274787;22;20672;-84